sensor_id;sensor_type;location;lat;lon;timestamp;P1;durP1;ratioP1;P2;durP2;ratioP2
11439;SDS011;5776;51.814;4.510;2022-11-15T00:00:26;35.47;;;18.13;;
11439;SDS011;5776;51.814;4.510;2022-11-15T00:02:52;39.20;;;18.00;;
11439;SDS011;5776;51.814;4.510;2022-11-15T00:05:18;31.17;;;15.53;;
11439;SDS011;5776;51.814;4.510;2022-11-15T00:07:45;27.87;;;15.03;;
11439;SDS011;5776;51.814;4.510;2022-11-15T00:10:11;30.20;;;14.73;;
11439;SDS011;5776;51.814;4.510;2022-11-15T00:12:37;40.03;;;17.60;;
11439;SDS011;5776;51.814;4.510;2022-11-15T00:15:03;39.97;;;19.50;;
11439;SDS011;5776;51.814;4.510;2022-11-15T00:17:29;40.00;;;18.60;;
11439;SDS011;5776;51.814;4.510;2022-11-15T00:19:55;36.23;;;16.70;;
11439;SDS011;5776;51.814;4.510;2022-11-15T00:22:21;39.17;;;17.57;;
11439;SDS011;5776;51.814;4.510;2022-11-15T00:24:47;37.03;;;16.73;;
11439;SDS011;5776;51.814;4.510;2022-11-15T00:27:13;45.90;;;21.30;;
11439;SDS011;5776;51.814;4.510;2022-11-15T00:29:39;44.20;;;20.30;;
11439;SDS011;5776;51.814;4.510;2022-11-15T00:32:09;39.40;;;18.80;;
11439;SDS011;5776;51.814;4.510;2022-11-15T00:34:35;36.03;;;17.17;;
11439;SDS011;5776;51.814;4.510;2022-11-15T00:37:01;35.37;;;15.00;;
11439;SDS011;5776;51.814;4.510;2022-11-15T00:39:27;51.47;;;22.00;;
11439;SDS011;5776;51.814;4.510;2022-11-15T00:41:53;40.53;;;19.30;;
11439;SDS011;5776;51.814;4.510;2022-11-15T00:44:18;35.87;;;17.37;;
11439;SDS011;5776;51.814;4.510;2022-11-15T00:46:44;33.67;;;16.47;;
11439;SDS011;5776;51.814;4.510;2022-11-15T00:49:10;28.90;;;14.57;;
11439;SDS011;5776;51.814;4.510;2022-11-15T00:51:36;42.43;;;20.07;;
11439;SDS011;5776;51.814;4.510;2022-11-15T00:54:02;39.43;;;17.97;;
11439;SDS011;5776;51.814;4.510;2022-11-15T00:56:28;49.23;;;21.53;;
11439;SDS011;5776;51.814;4.510;2022-11-15T00:58:54;39.37;;;19.53;;
11439;SDS011;5776;51.814;4.510;2022-11-15T01:01:20;45.17;;;21.67;;
11439;SDS011;5776;51.814;4.510;2022-11-15T01:03:46;40.20;;;18.43;;
11439;SDS011;5776;51.814;4.510;2022-11-15T01:06:12;38.30;;;18.23;;
11439;SDS011;5776;51.814;4.510;2022-11-15T01:08:38;45.77;;;22.70;;
11439;SDS011;5776;51.814;4.510;2022-11-15T01:11:10;40.40;;;17.87;;
11439;SDS011;5776;51.814;4.510;2022-11-15T01:13:37;43.70;;;21.40;;
11439;SDS011;5776;51.814;4.510;2022-11-15T01:16:15;43.17;;;20.70;;
11439;SDS011;5776;51.814;4.510;2022-11-15T01:18:44;34.10;;;17.43;;
11439;SDS011;5776;51.814;4.510;2022-11-15T01:21:13;37.80;;;16.83;;
11439;SDS011;5776;51.814;4.510;2022-11-15T01:23:41;42.60;;;18.60;;
11439;SDS011;5776;51.814;4.510;2022-11-15T01:26:07;28.37;;;14.20;;
11439;SDS011;5776;51.814;4.510;2022-11-15T01:28:37;41.63;;;18.37;;
11439;SDS011;5776;51.814;4.510;2022-11-15T01:31:05;31.63;;;15.87;;
11439;SDS011;5776;51.814;4.510;2022-11-15T01:33:35;36.90;;;18.83;;
11439;SDS011;5776;51.814;4.510;2022-11-15T01:36:06;30.93;;;15.57;;
11439;SDS011;5776;51.814;4.510;2022-11-15T01:38:34;31.70;;;16.70;;
11439;SDS011;5776;51.814;4.510;2022-11-15T01:41:00;34.23;;;17.03;;
11439;SDS011;5776;51.814;4.510;2022-11-15T01:43:33;30.53;;;16.40;;
11439;SDS011;5776;51.814;4.510;2022-11-15T01:48:48;29.37;;;16.27;;
11439;SDS011;5776;51.814;4.510;2022-11-15T01:51:17;33.13;;;17.07;;
11439;SDS011;5776;51.814;4.510;2022-11-15T01:53:46;33.77;;;17.67;;
11439;SDS011;5776;51.814;4.510;2022-11-15T01:56:16;31.93;;;15.47;;
11439;SDS011;5776;51.814;4.510;2022-11-15T01:58:47;29.33;;;15.43;;
11439;SDS011;5776;51.814;4.510;2022-11-15T02:01:13;28.47;;;17.00;;
11439;SDS011;5776;51.814;4.510;2022-11-15T02:03:54;32.00;;;16.93;;
11439;SDS011;5776;51.814;4.510;2022-11-15T02:06:24;38.53;;;18.30;;
11439;SDS011;5776;51.814;4.510;2022-11-15T02:08:50;32.90;;;18.67;;
11439;SDS011;5776;51.814;4.510;2022-11-15T02:11:17;32.17;;;17.77;;
11439;SDS011;5776;51.814;4.510;2022-11-15T02:13:43;38.23;;;18.40;;
11439;SDS011;5776;51.814;4.510;2022-11-15T02:18:46;32.70;;;17.63;;
11439;SDS011;5776;51.814;4.510;2022-11-15T02:21:53;27.80;;;15.30;;
11439;SDS011;5776;51.814;4.510;2022-11-15T02:24:31;28.37;;;15.43;;
11439;SDS011;5776;51.814;4.510;2022-11-15T02:27:42;27.07;;;16.23;;
11439;SDS011;5776;51.814;4.510;2022-11-15T02:32:48;35.97;;;18.30;;
11439;SDS011;5776;51.814;4.510;2022-11-15T02:38:17;30.13;;;17.50;;
11439;SDS011;5776;51.814;4.510;2022-11-15T02:41:16;22.53;;;12.93;;
11439;SDS011;5776;51.814;4.510;2022-11-15T02:49:08;27.43;;;16.47;;
11439;SDS011;5776;51.814;4.510;2022-11-15T02:51:36;33.80;;;18.63;;
11439;SDS011;5776;51.814;4.510;2022-11-15T02:54:02;30.03;;;17.03;;
11439;SDS011;5776;51.814;4.510;2022-11-15T02:56:28;27.33;;;16.77;;
11439;SDS011;5776;51.814;4.510;2022-11-15T02:59:00;26.07;;;16.83;;
11439;SDS011;5776;51.814;4.510;2022-11-15T03:04:25;25.20;;;14.93;;
11439;SDS011;5776;51.814;4.510;2022-11-15T03:12:55;23.03;;;12.47;;
11439;SDS011;5776;51.814;4.510;2022-11-15T03:15:33;20.73;;;13.20;;
11439;SDS011;5776;51.814;4.510;2022-11-15T03:18:15;19.87;;;11.57;;
11439;SDS011;5776;51.814;4.510;2022-11-15T03:20:50;20.23;;;11.47;;
11439;SDS011;5776;51.814;4.510;2022-11-15T03:23:16;20.73;;;11.17;;
11439;SDS011;5776;51.814;4.510;2022-11-15T03:25:46;16.40;;;11.10;;
11439;SDS011;5776;51.814;4.510;2022-11-15T03:28:19;15.67;;;10.93;;
11439;SDS011;5776;51.814;4.510;2022-11-15T03:30:49;15.40;;;10.20;;
11439;SDS011;5776;51.814;4.510;2022-11-15T03:33:16;19.47;;;11.67;;
11439;SDS011;5776;51.814;4.510;2022-11-15T03:35:44;16.93;;;11.03;;
11439;SDS011;5776;51.814;4.510;2022-11-15T03:38:23;19.27;;;11.37;;
11439;SDS011;5776;51.814;4.510;2022-11-15T03:40:55;16.07;;;10.03;;
11439;SDS011;5776;51.814;4.510;2022-11-15T03:43:36;16.87;;;10.53;;
11439;SDS011;5776;51.814;4.510;2022-11-15T03:46:10;19.73;;;11.70;;
11439;SDS011;5776;51.814;4.510;2022-11-15T03:48:41;12.97;;;8.73;;
11439;SDS011;5776;51.814;4.510;2022-11-15T03:51:12;18.20;;;11.67;;
11439;SDS011;5776;51.814;4.510;2022-11-15T03:53:40;14.70;;;9.13;;
11439;SDS011;5776;51.814;4.510;2022-11-15T03:56:06;19.73;;;11.00;;
11439;SDS011;5776;51.814;4.510;2022-11-15T03:58:32;16.23;;;10.17;;
11439;SDS011;5776;51.814;4.510;2022-11-15T04:00:58;17.40;;;10.77;;
11439;SDS011;5776;51.814;4.510;2022-11-15T04:03:25;20.60;;;11.07;;
11439;SDS011;5776;51.814;4.510;2022-11-15T04:05:51;21.77;;;11.53;;
11439;SDS011;5776;51.814;4.510;2022-11-15T04:08:17;19.63;;;10.97;;
11439;SDS011;5776;51.814;4.510;2022-11-15T04:10:43;18.83;;;10.27;;
11439;SDS011;5776;51.814;4.510;2022-11-15T04:13:09;15.63;;;11.07;;
11439;SDS011;5776;51.814;4.510;2022-11-15T04:15:34;19.77;;;10.17;;
11439;SDS011;5776;51.814;4.510;2022-11-15T04:18:01;22.50;;;10.53;;
11439;SDS011;5776;51.814;4.510;2022-11-15T04:20:28;19.47;;;9.97;;
11439;SDS011;5776;51.814;4.510;2022-11-15T04:23:17;21.37;;;10.97;;
11439;SDS011;5776;51.814;4.510;2022-11-15T04:26:04;15.40;;;9.57;;
11439;SDS011;5776;51.814;4.510;2022-11-15T04:28:33;16.40;;;9.50;;
11439;SDS011;5776;51.814;4.510;2022-11-15T04:30:58;16.67;;;10.27;;
11439;SDS011;5776;51.814;4.510;2022-11-15T04:33:24;16.57;;;9.07;;
11439;SDS011;5776;51.814;4.510;2022-11-15T04:35:51;16.40;;;9.40;;
11439;SDS011;5776;51.814;4.510;2022-11-15T04:38:36;17.43;;;8.97;;
11439;SDS011;5776;51.814;4.510;2022-11-15T04:41:03;14.30;;;8.80;;
11439;SDS011;5776;51.814;4.510;2022-11-15T04:43:29;14.80;;;9.17;;
11439;SDS011;5776;51.814;4.510;2022-11-15T04:45:54;17.47;;;9.77;;
11439;SDS011;5776;51.814;4.510;2022-11-15T04:48:21;14.37;;;8.87;;
11439;SDS011;5776;51.814;4.510;2022-11-15T04:50:47;18.47;;;9.13;;
11439;SDS011;5776;51.814;4.510;2022-11-15T04:53:13;16.43;;;9.30;;
11439;SDS011;5776;51.814;4.510;2022-11-15T04:55:39;17.47;;;9.60;;
11439;SDS011;5776;51.814;4.510;2022-11-15T04:58:05;18.53;;;9.23;;
11439;SDS011;5776;51.814;4.510;2022-11-15T05:00:32;15.90;;;9.50;;
11439;SDS011;5776;51.814;4.510;2022-11-15T05:02:58;19.60;;;9.73;;
11439;SDS011;5776;51.814;4.510;2022-11-15T05:05:42;18.40;;;8.73;;
11439;SDS011;5776;51.814;4.510;2022-11-15T05:08:08;18.67;;;9.40;;
11439;SDS011;5776;51.814;4.510;2022-11-15T05:10:34;18.40;;;9.10;;
11439;SDS011;5776;51.814;4.510;2022-11-15T05:13:00;14.47;;;8.43;;
11439;SDS011;5776;51.814;4.510;2022-11-15T05:15:26;19.70;;;8.37;;
11439;SDS011;5776;51.814;4.510;2022-11-15T05:17:56;19.67;;;8.33;;
11439;SDS011;5776;51.814;4.510;2022-11-15T05:20:23;14.70;;;7.80;;
11439;SDS011;5776;51.814;4.510;2022-11-15T05:22:49;15.43;;;7.73;;
11439;SDS011;5776;51.814;4.510;2022-11-15T05:25:15;17.53;;;7.37;;
11439;SDS011;5776;51.814;4.510;2022-11-15T05:27:41;11.90;;;7.10;;
11439;SDS011;5776;51.814;4.510;2022-11-15T05:30:07;12.87;;;6.77;;
11439;SDS011;5776;51.814;4.510;2022-11-15T05:32:33;13.30;;;7.63;;
11439;SDS011;5776;51.814;4.510;2022-11-15T05:34:59;11.57;;;6.70;;
11439;SDS011;5776;51.814;4.510;2022-11-15T05:37:25;14.97;;;7.10;;
11439;SDS011;5776;51.814;4.510;2022-11-15T05:39:51;16.20;;;7.07;;
11439;SDS011;5776;51.814;4.510;2022-11-15T05:42:17;12.57;;;6.10;;
11439;SDS011;5776;51.814;4.510;2022-11-15T05:44:44;11.57;;;6.07;;
11439;SDS011;5776;51.814;4.510;2022-11-15T05:47:14;13.67;;;6.33;;
11439;SDS011;5776;51.814;4.510;2022-11-15T05:49:42;13.80;;;6.57;;
11439;SDS011;5776;51.814;4.510;2022-11-15T05:52:10;15.90;;;6.23;;
11439;SDS011;5776;51.814;4.510;2022-11-15T05:54:39;11.23;;;6.07;;
11439;SDS011;5776;51.814;4.510;2022-11-15T05:57:05;11.03;;;6.03;;
11439;SDS011;5776;51.814;4.510;2022-11-15T05:59:32;12.53;;;5.93;;
11439;SDS011;5776;51.814;4.510;2022-11-15T06:02:00;12.00;;;5.70;;
11439;SDS011;5776;51.814;4.510;2022-11-15T06:04:26;11.07;;;5.80;;
11439;SDS011;5776;51.814;4.510;2022-11-15T06:06:52;13.73;;;5.90;;
11439;SDS011;5776;51.814;4.510;2022-11-15T06:09:18;12.33;;;6.10;;
11439;SDS011;5776;51.814;4.510;2022-11-15T06:11:44;9.43;;;5.90;;
11439;SDS011;5776;51.814;4.510;2022-11-15T06:14:09;11.50;;;6.23;;
11439;SDS011;5776;51.814;4.510;2022-11-15T06:16:35;13.40;;;5.60;;
11439;SDS011;5776;51.814;4.510;2022-11-15T06:19:01;10.47;;;5.43;;
11439;SDS011;5776;51.814;4.510;2022-11-15T06:21:27;11.13;;;5.77;;
11439;SDS011;5776;51.814;4.510;2022-11-15T06:23:55;14.17;;;6.03;;
11439;SDS011;5776;51.814;4.510;2022-11-15T06:26:21;12.03;;;5.10;;
11439;SDS011;5776;51.814;4.510;2022-11-15T06:28:47;7.70;;;4.70;;
11439;SDS011;5776;51.814;4.510;2022-11-15T06:31:13;10.50;;;5.20;;
11439;SDS011;5776;51.814;4.510;2022-11-15T06:33:39;8.10;;;4.57;;
11439;SDS011;5776;51.814;4.510;2022-11-15T06:36:07;10.13;;;4.30;;
11439;SDS011;5776;51.814;4.510;2022-11-15T06:38:35;12.27;;;5.20;;
11439;SDS011;5776;51.814;4.510;2022-11-15T06:41:02;11.57;;;5.40;;
11439;SDS011;5776;51.814;4.510;2022-11-15T06:43:28;10.90;;;5.20;;
11439;SDS011;5776;51.814;4.510;2022-11-15T06:45:54;11.70;;;5.37;;
11439;SDS011;5776;51.814;4.510;2022-11-15T06:48:20;13.70;;;5.27;;
11439;SDS011;5776;51.814;4.510;2022-11-15T06:50:50;10.33;;;5.13;;
11439;SDS011;5776;51.814;4.510;2022-11-15T06:53:23;8.47;;;4.80;;
11439;SDS011;5776;51.814;4.510;2022-11-15T06:55:50;8.10;;;4.17;;
11439;SDS011;5776;51.814;4.510;2022-11-15T06:58:16;9.00;;;4.90;;
11439;SDS011;5776;51.814;4.510;2022-11-15T07:00:42;9.93;;;5.30;;
11439;SDS011;5776;51.814;4.510;2022-11-15T07:03:08;7.97;;;4.40;;
11439;SDS011;5776;51.814;4.510;2022-11-15T07:05:35;8.17;;;4.10;;
11439;SDS011;5776;51.814;4.510;2022-11-15T07:08:01;6.97;;;4.43;;
11439;SDS011;5776;51.814;4.510;2022-11-15T07:10:27;9.87;;;3.90;;
11439;SDS011;5776;51.814;4.510;2022-11-15T07:12:54;4.20;;;2.27;;
11439;SDS011;5776;51.814;4.510;2022-11-15T07:15:22;6.27;;;3.90;;
11439;SDS011;5776;51.814;4.510;2022-11-15T07:17:50;6.07;;;3.73;;
11439;SDS011;5776;51.814;4.510;2022-11-15T07:20:16;6.20;;;3.53;;
11439;SDS011;5776;51.814;4.510;2022-11-15T07:22:42;8.57;;;4.23;;
11439;SDS011;5776;51.814;4.510;2022-11-15T07:25:10;9.00;;;4.17;;
11439;SDS011;5776;51.814;4.510;2022-11-15T07:27:37;7.80;;;3.40;;
11439;SDS011;5776;51.814;4.510;2022-11-15T07:30:03;10.00;;;3.93;;
11439;SDS011;5776;51.814;4.510;2022-11-15T07:32:30;3.37;;;2.53;;
11439;SDS011;5776;51.814;4.510;2022-11-15T07:34:56;9.47;;;3.87;;
11439;SDS011;5776;51.814;4.510;2022-11-15T07:37:22;6.43;;;3.50;;
11439;SDS011;5776;51.814;4.510;2022-11-15T07:39:48;4.77;;;2.97;;
11439;SDS011;5776;51.814;4.510;2022-11-15T07:42:14;6.20;;;4.17;;
11439;SDS011;5776;51.814;4.510;2022-11-15T07:44:58;7.17;;;4.70;;
11439;SDS011;5776;51.814;4.510;2022-11-15T07:47:24;6.27;;;4.63;;
11439;SDS011;5776;51.814;4.510;2022-11-15T07:49:50;5.63;;;3.90;;
11439;SDS011;5776;51.814;4.510;2022-11-15T07:52:16;9.10;;;5.20;;
11439;SDS011;5776;51.814;4.510;2022-11-15T07:54:42;11.53;;;4.70;;
11439;SDS011;5776;51.814;4.510;2022-11-15T07:57:08;8.20;;;5.00;;
11439;SDS011;5776;51.814;4.510;2022-11-15T07:59:35;6.07;;;3.80;;
11439;SDS011;5776;51.814;4.510;2022-11-15T08:02:00;5.10;;;3.73;;
11439;SDS011;5776;51.814;4.510;2022-11-15T08:04:26;10.63;;;3.80;;
11439;SDS011;5776;51.814;4.510;2022-11-15T08:06:52;6.83;;;4.37;;
11439;SDS011;5776;51.814;4.510;2022-11-15T08:09:18;8.00;;;4.43;;
11439;SDS011;5776;51.814;4.510;2022-11-15T08:11:44;13.33;;;5.00;;
11439;SDS011;5776;51.814;4.510;2022-11-15T08:14:10;9.03;;;4.63;;
11439;SDS011;5776;51.814;4.510;2022-11-15T08:16:36;7.97;;;4.77;;
11439;SDS011;5776;51.814;4.510;2022-11-15T08:19:02;6.27;;;3.30;;
11439;SDS011;5776;51.814;4.510;2022-11-15T08:21:28;7.87;;;4.20;;
11439;SDS011;5776;51.814;4.510;2022-11-15T08:23:54;8.37;;;5.10;;
11439;SDS011;5776;51.814;4.510;2022-11-15T08:26:20;8.63;;;4.13;;
11439;SDS011;5776;51.814;4.510;2022-11-15T08:28:46;5.60;;;3.43;;
11439;SDS011;5776;51.814;4.510;2022-11-15T08:31:13;6.73;;;3.43;;
11439;SDS011;5776;51.814;4.510;2022-11-15T08:33:42;7.77;;;3.43;;
11439;SDS011;5776;51.814;4.510;2022-11-15T08:36:11;7.87;;;3.37;;
11439;SDS011;5776;51.814;4.510;2022-11-15T08:38:40;6.60;;;4.13;;
11439;SDS011;5776;51.814;4.510;2022-11-15T08:41:06;8.77;;;4.10;;
11439;SDS011;5776;51.814;4.510;2022-11-15T08:43:32;6.63;;;3.70;;
11439;SDS011;5776;51.814;4.510;2022-11-15T08:45:58;7.40;;;3.73;;
11439;SDS011;5776;51.814;4.510;2022-11-15T08:48:24;9.23;;;4.10;;
11439;SDS011;5776;51.814;4.510;2022-11-15T08:50:54;9.27;;;2.87;;
11439;SDS011;5776;51.814;4.510;2022-11-15T08:53:21;6.93;;;3.93;;
11439;SDS011;5776;51.814;4.510;2022-11-15T08:55:47;8.23;;;3.03;;
11439;SDS011;5776;51.814;4.510;2022-11-15T08:58:13;8.33;;;4.00;;
11439;SDS011;5776;51.814;4.510;2022-11-15T09:00:39;8.23;;;3.30;;
11439;SDS011;5776;51.814;4.510;2022-11-15T09:03:06;6.17;;;3.70;;
11439;SDS011;5776;51.814;4.510;2022-11-15T09:05:32;6.97;;;3.20;;
11439;SDS011;5776;51.814;4.510;2022-11-15T09:08:01;9.20;;;4.20;;
11439;SDS011;5776;51.814;4.510;2022-11-15T09:10:27;10.53;;;3.87;;
11439;SDS011;5776;51.814;4.510;2022-11-15T09:12:53;8.47;;;2.87;;
11439;SDS011;5776;51.814;4.510;2022-11-15T09:15:19;7.43;;;3.07;;
11439;SDS011;5776;51.814;4.510;2022-11-15T09:17:45;7.00;;;3.70;;
11439;SDS011;5776;51.814;4.510;2022-11-15T09:20:11;5.23;;;3.47;;
11439;SDS011;5776;51.814;4.510;2022-11-15T09:22:37;4.73;;;3.20;;
11439;SDS011;5776;51.814;4.510;2022-11-15T09:25:04;8.53;;;3.53;;
11439;SDS011;5776;51.814;4.510;2022-11-15T09:27:30;7.50;;;3.13;;
11439;SDS011;5776;51.814;4.510;2022-11-15T09:29:57;6.87;;;3.00;;
11439;SDS011;5776;51.814;4.510;2022-11-15T09:32:23;5.80;;;2.57;;
11439;SDS011;5776;51.814;4.510;2022-11-15T09:34:49;8.00;;;2.87;;
11439;SDS011;5776;51.814;4.510;2022-11-15T09:37:16;4.27;;;2.50;;
11439;SDS011;5776;51.814;4.510;2022-11-15T09:39:42;4.20;;;2.63;;
11439;SDS011;5776;51.814;4.510;2022-11-15T09:42:12;6.43;;;2.80;;
11439;SDS011;5776;51.814;4.510;2022-11-15T09:50:18;5.50;;;2.20;;
11439;SDS011;5776;51.814;4.510;2022-11-15T09:52:59;3.33;;;2.07;;
11439;SDS011;5776;51.814;4.510;2022-11-15T09:55:30;4.63;;;2.40;;
11439;SDS011;5776;51.814;4.510;2022-11-15T09:58:10;8.53;;;2.20;;
11439;SDS011;5776;51.814;4.510;2022-11-15T10:00:48;6.67;;;2.30;;
11439;SDS011;5776;51.814;4.510;2022-11-15T10:03:22;4.30;;;1.97;;
11439;SDS011;5776;51.814;4.510;2022-11-15T10:05:54;6.00;;;2.23;;
11439;SDS011;5776;51.814;4.510;2022-11-15T10:11:20;4.67;;;2.30;;
11439;SDS011;5776;51.814;4.510;2022-11-15T10:13:49;3.87;;;2.27;;
11439;SDS011;5776;51.814;4.510;2022-11-15T10:16:21;5.53;;;2.60;;
11439;SDS011;5776;51.814;4.510;2022-11-15T10:24:13;3.00;;;1.60;;
11439;SDS011;5776;51.814;4.510;2022-11-15T10:26:48;4.17;;;2.10;;
11439;SDS011;5776;51.814;4.510;2022-11-15T10:29:19;6.70;;;2.40;;
11439;SDS011;5776;51.814;4.510;2022-11-15T10:31:46;5.20;;;2.00;;
11439;SDS011;5776;51.814;4.510;2022-11-15T10:34:13;5.80;;;1.93;;
11439;SDS011;5776;51.814;4.510;2022-11-15T10:36:53;6.13;;;2.10;;
11439;SDS011;5776;51.814;4.510;2022-11-15T10:39:23;4.00;;;1.60;;
11439;SDS011;5776;51.814;4.510;2022-11-15T10:41:50;6.00;;;2.10;;
11439;SDS011;5776;51.814;4.510;2022-11-15T10:46:47;4.93;;;1.47;;
11439;SDS011;5776;51.814;4.510;2022-11-15T10:49:26;6.40;;;2.30;;
11439;SDS011;5776;51.814;4.510;2022-11-15T10:57:07;8.67;;;1.60;;
11439;SDS011;5776;51.814;4.510;2022-11-15T11:00:41;4.80;;;1.30;;
11439;SDS011;5776;51.814;4.510;2022-11-15T11:05:36;4.67;;;1.47;;
11439;SDS011;5776;51.814;4.510;2022-11-15T11:10:52;3.37;;;1.33;;
11439;SDS011;5776;51.814;4.510;2022-11-15T11:13:36;3.87;;;1.57;;
11439;SDS011;5776;51.814;4.510;2022-11-15T11:18:50;8.33;;;1.40;;
11439;SDS011;5776;51.814;4.510;2022-11-15T11:21:34;4.80;;;1.20;;
11439;SDS011;5776;51.814;4.510;2022-11-15T11:24:08;4.20;;;1.27;;
11439;SDS011;5776;51.814;4.510;2022-11-15T11:26:57;3.47;;;1.33;;
11439;SDS011;5776;51.814;4.510;2022-11-15T11:32:09;4.07;;;1.43;;
11439;SDS011;5776;51.814;4.510;2022-11-15T11:34:50;3.73;;;1.30;;
11439;SDS011;5776;51.814;4.510;2022-11-15T11:40:19;6.47;;;1.10;;
11439;SDS011;5776;51.814;4.510;2022-11-15T11:54:06;2.07;;;0.83;;
11439;SDS011;5776;51.814;4.510;2022-11-15T11:56:39;2.50;;;0.97;;
11439;SDS011;5776;51.814;4.510;2022-11-15T11:59:17;7.57;;;1.40;;
11439;SDS011;5776;51.814;4.510;2022-11-15T12:01:48;4.20;;;1.10;;
11439;SDS011;5776;51.814;4.510;2022-11-15T12:06:59;4.50;;;1.20;;
11439;SDS011;5776;51.814;4.510;2022-11-15T12:15:37;2.80;;;0.90;;
11439;SDS011;5776;51.814;4.510;2022-11-15T12:18:08;4.53;;;0.83;;
11439;SDS011;5776;51.814;4.510;2022-11-15T12:20:40;3.60;;;0.90;;
11439;SDS011;5776;51.814;4.510;2022-11-15T12:23:23;5.27;;;1.27;;
11439;SDS011;5776;51.814;4.510;2022-11-15T12:26:02;3.17;;;0.80;;
11439;SDS011;5776;51.814;4.510;2022-11-15T12:33:57;3.90;;;1.10;;
11439;SDS011;5776;51.814;4.510;2022-11-15T12:39:03;2.30;;;0.93;;
11439;SDS011;5776;51.814;4.510;2022-11-15T12:41:32;3.77;;;1.00;;
11439;SDS011;5776;51.814;4.510;2022-11-15T12:43:59;5.40;;;1.00;;
11439;SDS011;5776;51.814;4.510;2022-11-15T12:48:55;4.33;;;0.80;;
11439;SDS011;5776;51.814;4.510;2022-11-15T13:02:24;0.87;;;0.50;;
11439;SDS011;5776;51.814;4.510;2022-11-15T13:04:53;4.70;;;1.00;;
11439;SDS011;5776;51.814;4.510;2022-11-15T13:33:32;6.33;;;1.13;;
11439;SDS011;5776;51.814;4.510;2022-11-15T13:36:01;2.23;;;1.00;;
11439;SDS011;5776;51.814;4.510;2022-11-15T13:38:34;6.80;;;1.20;;
11439;SDS011;5776;51.814;4.510;2022-11-15T13:43:47;6.60;;;1.10;;
11439;SDS011;5776;51.814;4.510;2022-11-15T13:48:46;2.67;;;1.07;;
11439;SDS011;5776;51.814;4.510;2022-11-15T13:51:40;6.13;;;1.13;;
11439;SDS011;5776;51.814;4.510;2022-11-15T13:54:18;3.87;;;0.80;;
11439;SDS011;5776;51.814;4.510;2022-11-15T13:56:45;3.50;;;1.00;;
11439;SDS011;5776;51.814;4.510;2022-11-15T13:59:24;7.47;;;1.30;;
11439;SDS011;5776;51.814;4.510;2022-11-15T14:01:52;6.00;;;1.37;;
11439;SDS011;5776;51.814;4.510;2022-11-15T14:04:20;4.93;;;1.07;;
11439;SDS011;5776;51.814;4.510;2022-11-15T14:06:50;4.23;;;0.90;;
11439;SDS011;5776;51.814;4.510;2022-11-15T14:14:54;3.90;;;1.00;;
11439;SDS011;5776;51.814;4.510;2022-11-15T14:19:56;3.73;;;1.10;;
11439;SDS011;5776;51.814;4.510;2022-11-15T14:22:27;7.93;;;1.50;;
11439;SDS011;5776;51.814;4.510;2022-11-15T14:25:14;2.33;;;0.80;;
11439;SDS011;5776;51.814;4.510;2022-11-15T14:28:07;2.60;;;0.77;;
11439;SDS011;5776;51.814;4.510;2022-11-15T14:30:41;3.90;;;1.10;;
11439;SDS011;5776;51.814;4.510;2022-11-15T14:35:57;4.13;;;0.90;;
11439;SDS011;5776;51.814;4.510;2022-11-15T14:38:27;4.83;;;0.80;;
11439;SDS011;5776;51.814;4.510;2022-11-15T14:40:53;2.30;;;0.80;;
11439;SDS011;5776;51.814;4.510;2022-11-15T14:43:21;1.67;;;0.90;;
11439;SDS011;5776;51.814;4.510;2022-11-15T14:45:47;2.17;;;0.80;;
11439;SDS011;5776;51.814;4.510;2022-11-15T14:48:13;2.03;;;1.00;;
11439;SDS011;5776;51.814;4.510;2022-11-15T14:50:39;4.37;;;1.73;;
11439;SDS011;5776;51.814;4.510;2022-11-15T14:53:05;4.33;;;1.13;;
11439;SDS011;5776;51.814;4.510;2022-11-15T14:55:33;1.67;;;0.90;;
11439;SDS011;5776;51.814;4.510;2022-11-15T14:58:01;2.70;;;0.90;;
11439;SDS011;5776;51.814;4.510;2022-11-15T15:00:31;4.27;;;0.60;;
11439;SDS011;5776;51.814;4.510;2022-11-15T15:02:58;2.67;;;0.90;;
11439;SDS011;5776;51.814;4.510;2022-11-15T15:05:25;3.73;;;0.87;;
11439;SDS011;5776;51.814;4.510;2022-11-15T15:07:59;1.87;;;0.90;;
11439;SDS011;5776;51.814;4.510;2022-11-15T15:10:25;3.20;;;0.77;;
11439;SDS011;5776;51.814;4.510;2022-11-15T15:12:56;3.20;;;1.00;;
11439;SDS011;5776;51.814;4.510;2022-11-15T15:15:24;4.07;;;1.10;;
11439;SDS011;5776;51.814;4.510;2022-11-15T15:17:51;3.07;;;0.70;;
11439;SDS011;5776;51.814;4.510;2022-11-15T15:20:16;2.80;;;0.80;;
11439;SDS011;5776;51.814;4.510;2022-11-15T15:22:43;4.40;;;0.80;;
11439;SDS011;5776;51.814;4.510;2022-11-15T15:25:20;2.83;;;1.10;;
11439;SDS011;5776;51.814;4.510;2022-11-15T15:27:54;5.37;;;1.10;;
11439;SDS011;5776;51.814;4.510;2022-11-15T15:30:21;1.70;;;0.73;;
11439;SDS011;5776;51.814;4.510;2022-11-15T15:32:47;5.53;;;1.10;;
11439;SDS011;5776;51.814;4.510;2022-11-15T15:35:13;5.40;;;1.00;;
11439;SDS011;5776;51.814;4.510;2022-11-15T15:37:41;3.87;;;0.80;;
11439;SDS011;5776;51.814;4.510;2022-11-15T15:40:10;8.43;;;1.33;;
11439;SDS011;5776;51.814;4.510;2022-11-15T15:42:41;5.57;;;1.00;;
11439;SDS011;5776;51.814;4.510;2022-11-15T15:45:07;3.93;;;1.17;;
11439;SDS011;5776;51.814;4.510;2022-11-15T15:47:34;1.20;;;0.70;;
11439;SDS011;5776;51.814;4.510;2022-11-15T15:50:00;5.03;;;1.10;;
11439;SDS011;5776;51.814;4.510;2022-11-15T15:52:27;3.23;;;0.90;;
11439;SDS011;5776;51.814;4.510;2022-11-15T15:54:53;3.03;;;1.20;;
11439;SDS011;5776;51.814;4.510;2022-11-15T15:57:19;4.87;;;1.57;;
11439;SDS011;5776;51.814;4.510;2022-11-15T15:59:44;3.43;;;1.70;;
11439;SDS011;5776;51.814;4.510;2022-11-15T16:02:13;3.70;;;1.03;;
11439;SDS011;5776;51.814;4.510;2022-11-15T16:04:40;3.10;;;0.90;;
11439;SDS011;5776;51.814;4.510;2022-11-15T16:07:07;3.37;;;1.20;;
11439;SDS011;5776;51.814;4.510;2022-11-15T16:09:42;4.10;;;0.97;;
11439;SDS011;5776;51.814;4.510;2022-11-15T16:12:27;8.17;;;1.60;;
11439;SDS011;5776;51.814;4.510;2022-11-15T16:14:57;4.03;;;1.10;;
11439;SDS011;5776;51.814;4.510;2022-11-15T16:17:33;4.10;;;1.50;;
11439;SDS011;5776;51.814;4.510;2022-11-15T16:20:03;3.97;;;1.20;;
11439;SDS011;5776;51.814;4.510;2022-11-15T16:22:29;3.43;;;1.00;;
11439;SDS011;5776;51.814;4.510;2022-11-15T16:24:55;3.87;;;0.90;;
11439;SDS011;5776;51.814;4.510;2022-11-15T16:27:22;4.43;;;1.00;;
11439;SDS011;5776;51.814;4.510;2022-11-15T16:29:48;1.63;;;1.10;;
11439;SDS011;5776;51.814;4.510;2022-11-15T16:32:14;5.17;;;1.20;;
11439;SDS011;5776;51.814;4.510;2022-11-15T16:34:41;6.60;;;1.60;;
11439;SDS011;5776;51.814;4.510;2022-11-15T16:37:11;4.50;;;1.10;;
11439;SDS011;5776;51.814;4.510;2022-11-15T16:39:48;5.00;;;1.47;;
11439;SDS011;5776;51.814;4.510;2022-11-15T16:42:14;5.70;;;1.30;;
11439;SDS011;5776;51.814;4.510;2022-11-15T16:44:40;3.90;;;1.20;;
11439;SDS011;5776;51.814;4.510;2022-11-15T16:47:13;7.17;;;1.77;;
11439;SDS011;5776;51.814;4.510;2022-11-15T16:49:42;4.13;;;1.30;;
11439;SDS011;5776;51.814;4.510;2022-11-15T16:52:08;4.97;;;1.37;;
11439;SDS011;5776;51.814;4.510;2022-11-15T16:54:35;6.57;;;1.60;;
11439;SDS011;5776;51.814;4.510;2022-11-15T16:57:01;6.10;;;1.60;;
11439;SDS011;5776;51.814;4.510;2022-11-15T16:59:26;4.07;;;1.40;;
11439;SDS011;5776;51.814;4.510;2022-11-15T17:01:52;4.33;;;1.37;;
11439;SDS011;5776;51.814;4.510;2022-11-15T17:04:18;4.23;;;1.10;;
11439;SDS011;5776;51.814;4.510;2022-11-15T17:06:47;3.33;;;1.47;;
11439;SDS011;5776;51.814;4.510;2022-11-15T17:09:14;3.00;;;1.40;;
11439;SDS011;5776;51.814;4.510;2022-11-15T17:11:43;10.40;;;1.77;;
11439;SDS011;5776;51.814;4.510;2022-11-15T17:14:09;6.33;;;2.27;;
11439;SDS011;5776;51.814;4.510;2022-11-15T17:16:36;8.17;;;2.03;;
11439;SDS011;5776;51.814;4.510;2022-11-15T17:19:13;6.40;;;2.07;;
11439;SDS011;5776;51.814;4.510;2022-11-15T17:21:41;6.57;;;2.30;;
11439;SDS011;5776;51.814;4.510;2022-11-15T17:24:08;4.13;;;1.73;;
11439;SDS011;5776;51.814;4.510;2022-11-15T17:26:35;5.17;;;1.97;;
11439;SDS011;5776;51.814;4.510;2022-11-15T17:29:01;4.20;;;1.97;;